Attività con fini culturali e ricreativi - Codice Fiscale 91122750689  

Pescara - LIBP

Metar : METAR LIBP 191750Z 28003KT 230V330 9999 SCT020 BKN070 07/05 Q1013=

Taf : TAF LIBP 191700Z 1918/2018 34008KT 7000 SCT025 BKN050 TEMPO 1918/2006 4000 RA TEMPO 2006/2018 3000 SHRA=

Scopri come leggere i bollettini codificati...


Storico

LIBP 191750Z 28003KT 230V330 9999 SCT020 BKN070 07/05 Q1013
LIBP 191650Z VRB02KT 9999 SCT030 BKN070 07/05 Q1013
LIBP 191550Z 32003KT 260V010 9999 FEW030 SCT050 08/05 Q1013
LIBP 191450Z 33005KT 260V360 9999 SCT015 BKN035 08/06 Q1014
LIBP 191350Z 32005KT 280V350 8000 -RA SCT020 BKN050 08/06 Q1014
LIBP 191250Z 32006KT 280V350 8000 -RA SCT020 BKN030 08/06 Q1014
LIBP 191150Z 30006KT 260V330 8000 -RA SCT020 BKN030 08/06 Q1015
LIBP 191050Z 30007KT 260V320 8000 -RA SCT012 BKN030 08/06 Q1015 RERA
LIBP 190950Z 28006KT 250V310 8000 RA SCT012 BKN030 07/06 Q1015
LIBP 190850Z 30006KT 270V330 8000 -RA SCT012 BKN030 07/06 Q1015
LIBP 190750Z 30006KT 250V010 8000 -RA SCT015 BKN035 07/06 Q1015
LIBP 190650Z 28008KT 230V320 6000 -RA SCT015 BKN025 07/06 Q1015
LIBP 190619Z AUTO 28007KT 240V330 9000 -RA FEW014/// OVC024/// 07/06 Q1015
LIBP 190556Z AUTO 29007KT 250V340 6000 RA FEW014/// OVC024/// 07/06 Q1014
LIBP 190550Z AUTO 30008KT 250V350 6000 -RA FEW014/// OVC024/// 07/06 Q1014
LIBP 190450Z AUTO 30009KT 270V330 9999 -RA OVC023/// 08/06 Q1014
LIBP 190350Z AUTO 30007KT 230V360 9999 -DZ SCT013/// OVC024/// 08/06 Q1014
LIBP 190302Z AUTO 29007KT 250V330 9999 FEW011/// BKN020/// OVC035/// 08/06 Q1014
LIBP 190250Z AUTO 29008KT 260V320 9999 -RA BKN011/// OVC042/// 08/06 Q1014
LIBP 190152Z AUTO 30008KT 9999 BKN011/// OVC014/// 08/06 Q1014
LIBP 190150Z AUTO 30008KT 9999 SCT011/// OVC013/// 08/06 Q1014
LIBP 190113Z AUTO 29009KT 9999 -RA OVC011/// 08/06 Q1015
LIBP 190052Z AUTO 29009KT 5000 +DZ OVC014/// 08/07 Q1015
LIBP 190050Z AUTO 29009KT 5000 DZ OVC014/// 08/07 Q1015
LIBP 182350Z AUTO 30009KT 270V330 9999 -RA OVC014/// 08/07 Q1015
LIBP 182250Z AUTO 29010KT 260V320 9999 -RA OVC013/// 09/07 Q1015
LIBP 182150Z 29007KT 270V330 9999 -RA SCT015 BKN040 09/07 Q1015
LIBP 182050Z 24004KT 210V290 9999 -RA SCT020 BKN040 09/06 Q1016
LIBP 181950Z 23004KT 9999 SCT020 BKN040 08/07 Q1016
LIBP 181850Z 23003KT 8000 -RA SCT020 BKN040 08/07 Q1016
LIBP 181750Z VRB01KT 8000 -RA SCT020 BKN040 09/07 Q1016
LIBP 181650Z VRB01KT 8000 -DZ SCT020 BKN040 09/08 Q1016
LIBP 181550Z VRB02KT 9000 FEW010 BKN045 09/07 Q1015
LIBP 181450Z 36004KT 310V050 9000 FEW010 BKN045 09/07 Q1015
LIBP 181350Z 36008KT 9000 SCT008 BKN050 09/07 Q1015
LIBP 181250Z 35008KT 320V020 8000 BKN008 BKN050 09/07 Q1015
LIBP 181150Z 35010KT 320V020 4000 BR BKN006 10/08 Q1016
LIBP 181055Z 35010KT 3000 BR SCT005 BKN050 10/09 Q1016
LIBP 181050Z 35007KT 310V030 4000 BR FEW008 BKN050 11/09 Q1016
LIBP 180950Z VRB01KT 5000 BR BKN070 10/07 Q1016
LIBP 180850Z 22004KT 4000 BR BKN070 09/06 Q1016
LIBP 180750Z 22004KT 3500 BR BKN090 07/06 Q1016
LIBP 180650Z 24004KT 3500 BR BKN070 07/06 Q1016
LIBP 180550Z AUTO 20003KT 3200 BR OVC066/// 06/05 Q1016
LIBP 180518Z AUTO 20003KT 2800 BR OVC069/// 06/05 Q1016
LIBP 180450Z AUTO 25002KT 3800 BR OVC072/// 06/05 Q1016
LIBP 180412Z AUTO 23002KT 3700 BR FEW077/// OVC110/// 06/05 Q1016
LIBP 180353Z AUTO 23002KT 2800 BR OVC110/// 06/05 Q1016
LIBP 180350Z AUTO 23002KT 4100 BR OVC110/// 06/05 Q1016
LIBP 180314Z AUTO 20002KT 2800 BR BKN083/// 06/05 Q1016
LIBP 180250Z AUTO 22002KT 4500 BR OVC078/// 07/05 Q1016
LIBP 180210Z AUTO VRB01KT 4900 BR OVC075/// 07/05 Q1016
LIBP 180202Z AUTO VRB01KT 5000 BR OVC075/// 07/05 Q1016
LIBP 180050Z AUTO 23003KT 4800 -RA BR OVC073/// 07/05 Q1017
LIBP 172350Z AUTO 20002KT 5000 -RA OVC075/// 07/05 Q1018
LIBP 172316Z AUTO 21004KT 4900 BR OVC077/// 06/05 Q1018
LIBP 172250Z AUTO 22003KT 5000 BR BKN080/// OVC120/// 07/05 Q1018
LIBP 172150Z 26002KT 9999 SCT090 07/05 Q1019
LIBP 172050Z 21003KT CAVOK 07/05 Q1019
LIBP 171950Z VRB02KT CAVOK 09/05 Q1019
LIBP 171850Z VRB02KT CAVOK 10/05 Q1020
LIBP 171750Z VRB02KT 9999 SCT100 10/05 Q1020
LIBP 171650Z VRB02KT CAVOK 10/05 Q1020
LIBP 171550Z 11004KT 070V140 CAVOK 11/05 Q1020
LIBP 171450Z 06005KT CAVOK 11/06 Q1021
LIBP 171350Z 04006KT CAVOK 11/06 Q1021
LIBP 171250Z 05006KT CAVOK 11/04 Q1021
LIBP 171150Z 07007KT CAVOK 11/04 Q1022
LIBP 171050Z VRB02KT CAVOK 11/02 Q1023
LIBP 170950Z 21004KT CAVOK 09/00 Q1023
LIBP 170850Z 23004KT CAVOK 08/01 Q1024
LIBP 170750Z 21005KT CAVOK 04/00 Q1024
LIBP 170650Z 20004KT CAVOK 01/M01 Q1024
LIBP 170550Z AUTO 20006KT 9999 BKN220/// M01/M02 Q1024
LIBP 170450Z AUTO 20005KT 9999 NCD 00/M02 Q1024
LIBP 170350Z AUTO 23003KT 9999 SCT230/// 01/M02 Q1025
LIBP 170250Z AUTO 24003KT 9999 OVC230/// 02/M01 Q1025
LIBP 170150Z AUTO 24005KT 9999 OVC230/// 02/M01 Q1026
LIBP 170050Z AUTO 23005KT 9999 OVC230/// 02/M01 Q1026
LIBP 162350Z AUTO 21005KT 9999 SCT240/// 01/M02 Q1026
LIBP 162250Z AUTO 21005KT 9999 NCD 01/M01 Q1025
LIBP 162150Z 21005KT CAVOK 02/M01 Q1025
LIBP 162050Z 24003KT CAVOK 04/M01 Q1025
LIBP 161950Z 23004KT CAVOK 05/M00 Q1025
LIBP 161850Z 21002KT CAVOK 06/M00 Q1025
LIBP 161750Z 35003KT CAVOK 07/M00 Q1024
LIBP 161650Z 05003KT CAVOK 09/M02 Q1024
LIBP 161550Z 11005KT CAVOK 10/M03 Q1024
LIBP 161450Z 07006KT CAVOK 10/M02 Q1024
LIBP 161350Z 05007KT CAVOK 11/M03 Q1024
LIBP 161250Z 05006KT 010V080 CAVOK 11/M02 Q1025
LIBP 161150Z 05006KT 020V100 CAVOK 12/M03 Q1025
LIBP 161050Z 06003KT 020V190 CAVOK 11/M04 Q1025
LIBP 160950Z 20003KT 130V280 CAVOK 10/M03 Q1026
LIBP 160850Z 23005KT 200V270 CAVOK 07/M02 Q1025
LIBP 160750Z 23005KT CAVOK 04/M02 Q1025
LIBP 160650Z 20006KT CAVOK M01/M04 Q1025
LIBP 160550Z AUTO 20006KT 9999 NCD M03/M05 Q1025
LIBP 160450Z AUTO 20005KT 9999 NCD M03/M05 Q1025
LIBP 160350Z AUTO 21007KT 9999 NCD M02/M04 Q1025
LIBP 160250Z AUTO 20006KT 9999 NCD M02/M04 Q1025
LIBP 160150Z AUTO 21006KT 9999 NCD M02/M04 Q1025
LIBP 160050Z AUTO 23005KT 9999 NCD M01/M03 Q1025

Informazioni elaborate utilizzando, tra l’altro, dati e prodotti del Servizio Meteorologico dell’Aeronautica Militare pubblicati sul sito www.meteoam.it e della National Oceanic and Atmospheric Administration (NOAA)

Ultimi caricamenti...


I-AMDO Aviomar Cessna 172S Skyhawk SP

 


LZ-DEO ALK Airlines McDonnell Douglas MD-82

 


MM80730 (PS-30) Polizia di Stato Agusta-Bell AB-206

Questo sito non utilizza cookie di profilazione. Il sito utilizza cookie tecnici, di analisi anonima di prima parte e di terze parti per servizi di social network.